Time;durP1;ratioP1;P1;durP2;ratioP2;P2;SDS_P1;SDS_P2;PMS_P1;PMS_P2;Temp;Humidity;BMP_temperature;BMP_pressure;BME280_temperature;BME280_humidity;BME280_pressure;Samples;Min_cycle;Max_cycle;Signal;HPM_P1;HPM_P2
2023/11/02 00:02:26;;;;;;;21.88;19.65;;;30.50;1.00;;;;;;5021373;28;20025;-61
2023/11/02 00:04:53;;;;;;;23.20;18.92;;;30.50;1.00;;;;;;5027290;28;20025;-61
2023/11/02 00:07:19;;;;;;;20.42;18.42;;;30.40;1.00;;;;;;5019954;28;20034;-61
2023/11/02 00:20:34;;;;;;;19.98;17.98;;;30.30;1.00;;;;;;5029589;28;20095;-61
2023/11/02 00:23:01;;;;;;;19.65;17.65;;;30.40;1.00;;;;;;5034336;28;20125;-61
2023/11/02 00:25:46;;;;;;;18.17;16.52;;;30.40;1.00;;;;;;5035355;28;20029;-61
2023/11/02 00:28:11;;;;;;;19.60;17.70;;;30.30;1.00;;;;;;5033991;28;20080;-61
2023/11/02 00:30:37;;;;;;;19.00;17.02;;;30.40;1.00;;;;;;5034989;28;20022;-61
2023/11/02 00:33:04;;;;;;;19.45;16.75;;;30.40;1.00;;;;;;5035288;28;20014;-61
2023/11/02 00:35:29;;;;;;;18.40;16.63;;;30.40;1.00;;;;;;5035215;28;20029;-61
2023/11/02 00:37:55;;;;;;;18.05;16.45;;;30.40;1.00;;;;;;5034926;28;20041;-61
2023/11/02 00:40:21;;;;;;;16.35;14.75;;;30.30;1.00;;;;;;5025105;28;20072;-61
2023/11/02 00:42:48;;;;;;;15.38;13.75;;;30.30;1.00;;;;;;5031199;28;20052;-61
2023/11/02 00:45:15;;;;;;;15.68;14.13;;;30.20;1.00;;;;;;5033644;28;20029;-61
2023/11/02 00:47:41;;;;;;;16.85;15.27;;;30.30;1.00;;;;;;5035100;28;20099;-61
2023/11/02 00:50:59;;;;;;;14.75;13.38;;;30.20;1.00;;;;;;5034871;28;20053;-61
2023/11/02 00:53:25;;;;;;;14.25;12.95;;;30.20;1.00;;;;;;5034763;28;20017;-61
2023/11/02 00:55:51;;;;;;;14.65;13.15;;;30.20;1.00;;;;;;5035004;28;20022;-61
2023/11/02 00:58:27;;;;;;;13.02;11.82;;;30.20;1.00;;;;;;5034892;28;20083;-61
2023/11/02 01:00:52;;;;;;;14.40;13.10;;;30.30;1.00;;;;;;5033628;28;20036;-61
2023/11/02 01:03:27;;;;;;;13.75;12.45;;;30.30;1.00;;;;;;5034611;28;20017;-61
2023/11/02 01:05:53;;;;;;;13.25;11.98;;;30.20;1.00;;;;;;5034775;28;20021;-61
2023/11/02 01:08:33;;;;;;;13.38;12.18;;;30.30;1.00;;;;;;5033188;28;20439;-61
2023/11/02 01:10:58;;;;;;;13.98;12.60;;;30.20;1.00;;;;;;5034688;28;20021;-61
2023/11/02 01:13:26;;;;;;;14.23;12.93;;;30.20;1.00;;;;;;5034387;28;20021;-61
2023/11/02 01:16:09;;;;;;;15.68;14.20;;;30.20;1.00;;;;;;5025957;28;20557;-64
2023/11/02 01:18:38;;;;;;;16.27;14.75;;;30.20;1.00;;;;;;5063098;28;20368;-61
2023/11/02 01:21:06;;;;;;;16.27;14.80;;;30.20;1.00;;;;;;5033000;28;20025;-61
2023/11/02 01:23:33;;;;;;;16.30;14.65;;;30.10;1.00;;;;;;5034168;28;20100;-61
2023/11/02 01:26:01;;;;;;;17.83;16.02;;;30.20;1.00;;;;;;5034076;28;20089;-61
2023/11/02 01:28:49;;;;;;;17.38;15.77;;;30.20;1.00;;;;;;5032101;28;20014;-61
2023/11/02 01:31:17;;;;;;;15.68;14.13;;;30.10;1.00;;;;;;5033326;28;20388;-61
2023/11/02 01:33:54;;;;;;;18.23;16.13;;;30.10;1.00;;;;;;5032646;28;20329;-61
2023/11/02 01:36:30;;;;;;;16.83;15.20;;;30.20;1.00;;;;;;5034061;28;20044;-61
2023/11/02 01:39:15;;;;;;;17.23;15.63;;;30.20;1.00;;;;;;5029272;28;20052;-61
2023/11/02 01:41:51;;;;;;;17.33;15.60;;;30.10;1.00;;;;;;5033375;28;20022;-61
2023/11/02 01:44:22;;;;;;;16.52;14.98;;;30.20;1.00;;;;;;5033683;28;20108;-61
2023/11/02 01:47:09;;;;;;;16.70;14.90;;;30.10;1.00;;;;;;5020198;28;20026;-61
2023/11/02 01:49:53;;;;;;;17.65;15.80;;;30.10;1.00;;;;;;5029299;28;20095;-61
2023/11/02 01:52:54;;;;;;;18.60;16.50;;;30.20;1.00;;;;;;5033620;28;20533;-61
2023/11/02 01:55:29;;;;;;;18.50;16.50;;;30.20;1.00;;;;;;5032199;28;20121;-61
2023/11/02 01:58:06;;;;;;;18.92;17.05;;;30.20;1.00;;;;;;5032282;28;20387;-61
2023/11/02 02:00:59;;;;;;;18.75;16.85;;;30.20;1.00;;;;;;5020954;28;20037;-61
2023/11/02 02:03:41;;;;;;;19.73;17.63;;;30.20;1.00;;;;;;5033441;28;20028;-61
2023/11/02 02:06:18;;;;;;;18.98;16.98;;;30.20;1.00;;;;;;5032882;28;20041;-61
2023/11/02 02:09:18;;;;;;;20.80;17.42;;;30.20;1.00;;;;;;5032512;28;20049;-62
2023/11/02 02:12:25;;;;;;;21.42;18.23;;;30.10;1.00;;;;;;5032420;28;20108;-61
2023/11/02 02:15:15;;;;;;;20.63;16.60;;;30.20;1.00;;;;;;5032147;28;20096;-61
2023/11/02 02:18:09;;;;;;;18.92;16.00;;;30.10;1.00;;;;;;5020648;28;20048;-61
2023/11/02 02:20:37;;;;;;;22.05;18.80;;;30.20;1.00;;;;;;5031796;28;20168;-61
2023/11/02 02:23:49;;;;;;;19.10;17.02;;;30.20;1.00;;;;;;5031636;28;20432;-61
2023/11/02 02:26:42;;;;;;;19.38;17.42;;;30.20;1.00;;;;;;5029717;28;20060;-61
2023/11/02 02:29:34;;;;;;;18.38;16.50;;;30.20;1.00;;;;;;5032031;28;20022;-61
2023/11/02 02:32:39;;;;;;;17.55;15.85;;;30.20;1.00;;;;;;5030385;28;20435;-61
2023/11/02 02:35:33;;;;;;;18.10;16.17;;;30.20;1.00;;;;;;5029910;28;20392;-61
2023/11/02 02:38:19;;;;;;;17.55;15.75;;;30.20;1.00;;;;;;5017302;28;20045;-61
2023/11/02 02:41:02;;;;;;;17.83;15.95;;;30.10;1.00;;;;;;5023565;28;20435;-61
2023/11/02 02:43:30;;;;;;;18.00;16.15;;;30.00;1.00;;;;;;5029029;28;20017;-61
2023/11/02 02:45:57;;;;;;;18.25;16.55;;;30.00;1.00;;;;;;5030321;28;20029;-61
2023/11/02 02:48:25;;;;;;;16.55;14.85;;;30.00;1.00;;;;;;5029619;28;20107;-61
2023/11/02 02:50:57;;;;;;;18.10;16.25;;;30.10;1.00;;;;;;5031064;28;20108;-61
2023/11/02 02:53:30;;;;;;;16.50;14.98;;;30.10;1.00;;;;;;5029014;28;20029;-61
2023/11/02 02:56:04;;;;;;;16.25;14.73;;;30.10;1.00;;;;;;5012758;28;20129;-61
2023/11/02 02:58:33;;;;;;;15.68;14.20;;;30.10;1.00;;;;;;5019601;28;20022;-61
2023/11/02 03:01:03;;;;;;;16.42;14.65;;;30.10;1.00;;;;;;5017610;28;20396;-61
2023/11/02 03:03:30;;;;;;;17.20;15.50;;;30.10;1.00;;;;;;5018542;28;20048;-61
2023/11/02 03:05:57;;;;;;;17.00;15.40;;;30.10;1.00;;;;;;5031025;28;20069;-61
2023/11/02 03:08:26;;;;;;;16.15;14.55;;;30.10;1.00;;;;;;5028128;28;20452;-61
2023/11/02 03:10:52;;;;;;;17.70;14.80;;;30.20;1.00;;;;;;5012540;28;20076;-61
2023/11/02 03:13:19;;;;;;;16.27;14.40;;;30.00;1.00;;;;;;5012361;28;20066;-61
2023/11/02 03:15:51;;;;;;;18.88;15.43;;;30.10;1.00;;;;;;5011065;28;20395;-61
2023/11/02 03:18:16;;;;;;;15.88;14.38;;;30.20;1.00;;;;;;5013982;28;20045;-61
2023/11/02 03:20:42;;;;;;;15.30;13.80;;;30.10;1.00;;;;;;5030645;28;20038;-61
2023/11/02 03:23:26;;;;;;;17.35;15.55;;;30.10;1.00;;;;;;5031902;28;20030;-61
2023/11/02 03:26:02;;;;;;;16.67;15.05;;;30.10;1.00;;;;;;5024648;28;20026;-61
2023/11/02 03:28:40;;;;;;;17.48;15.88;;;30.10;1.00;;;;;;5012018;28;20044;-61
2023/11/02 03:31:32;;;;;;;17.10;15.48;;;30.10;1.00;;;;;;5020727;28;20032;-61
2023/11/02 03:34:35;;;;;;;16.35;14.18;;;30.00;1.00;;;;;;5031409;28;20072;-61
2023/11/02 03:37:25;;;;;;;16.50;14.85;;;30.00;1.00;;;;;;5023015;28;20045;-61
2023/11/02 03:40:02;;;;;;;16.08;14.18;;;30.10;1.00;;;;;;5031670;28;20111;-61
2023/11/02 03:42:40;;;;;;;15.85;14.25;;;30.10;1.00;;;;;;5031701;28;20049;-61
2023/11/02 03:45:19;;;;;;;15.05;13.43;;;30.10;1.00;;;;;;5031739;28;20036;-61
2023/11/02 03:48:06;;;;;;;13.65;12.35;;;30.10;1.00;;;;;;5031635;28;20112;-61
2023/11/02 03:50:37;;;;;;;15.02;13.25;;;30.10;1.00;;;;;;5029763;28;20022;-61
2023/11/02 03:53:28;;;;;;;14.73;13.23;;;30.00;1.00;;;;;;5031804;28;20040;-61
2023/11/02 03:56:12;;;;;;;16.85;15.02;;;30.10;1.00;;;;;;5019399;28;20537;-61
2023/11/02 03:58:54;;;;;;;15.50;14.03;;;30.00;1.00;;;;;;5031519;28;20033;-61
2023/11/02 04:01:50;;;;;;;15.07;13.57;;;30.10;1.00;;;;;;5031303;28;20329;-61
2023/11/02 04:04:25;;;;;;;17.55;15.77;;;30.10;1.00;;;;;;5031480;28;20025;-61
2023/11/02 04:07:00;;;;;;;16.27;14.68;;;30.10;1.00;;;;;;5031590;28;20587;-61
2023/11/02 04:09:34;;;;;;;15.82;14.25;;;30.10;1.00;;;;;;5031462;28;20484;-61
2023/11/02 04:12:06;;;;;;;15.10;13.70;;;30.00;1.00;;;;;;5031560;28;20029;-61
2023/11/02 04:14:35;;;;;;;15.50;14.00;;;30.10;1.00;;;;;;5031382;28;20029;-61
2023/11/02 04:17:00;;;;;;;15.27;13.90;;;30.00;1.00;;;;;;5031365;28;20044;-61
2023/11/02 04:19:26;;;;;;;15.43;13.98;;;30.10;1.00;;;;;;5029881;28;20034;-61
2023/11/02 04:21:51;;;;;;;16.30;14.70;;;30.10;1.00;;;;;;5031210;28;20034;-61
2023/11/02 04:24:17;;;;;;;17.15;15.55;;;30.10;1.00;;;;;;5031284;28;20053;-61
2023/11/02 04:26:43;;;;;;;16.48;14.77;;;30.10;1.00;;;;;;5029917;28;20099;-61
2023/11/02 04:29:09;;;;;;;18.33;16.45;;;30.00;1.00;;;;;;5031243;28;20033;-61
2023/11/02 04:31:34;;;;;;;17.10;15.48;;;30.00;1.00;;;;;;5031229;28;20029;-61
2023/11/02 04:34:00;;;;;;;17.42;15.82;;;30.00;1.00;;;;;;5031337;28;20030;-61
2023/11/02 04:36:25;;;;;;;17.92;16.17;;;30.10;1.00;;;;;;5031247;28;20382;-61
2023/11/02 04:38:52;;;;;;;17.73;15.93;;;30.00;1.00;;;;;;5030849;28;20060;-61
2023/11/02 04:41:20;;;;;;;18.25;16.45;;;30.10;1.00;;;;;;5031371;28;20070;-61
2023/11/02 04:43:46;;;;;;;17.50;15.90;;;30.00;1.00;;;;;;5031281;28;20485;-61
2023/11/02 04:46:12;;;;;;;17.50;15.75;;;30.10;1.00;;;;;;5031265;28;20083;-61
2023/11/02 04:48:37;;;;;;;18.42;16.45;;;30.10;1.00;;;;;;5031190;28;20025;-61
2023/11/02 04:51:03;;;;;;;16.83;15.20;;;30.10;1.00;;;;;;5031102;28;20493;-61
2023/11/02 04:53:30;;;;;;;16.35;14.70;;;30.10;1.00;;;;;;5029778;28;20029;-61
2023/11/02 04:55:55;;;;;;;17.30;15.60;;;30.10;1.00;;;;;;5030867;28;20029;-61
2023/11/02 04:58:21;;;;;;;16.92;15.20;;;30.10;1.00;;;;;;5030868;28;20028;-61
2023/11/02 05:00:47;;;;;;;17.23;14.82;;;30.10;1.00;;;;;;5016987;28;20034;-61
2023/11/02 05:03:12;;;;;;;16.98;15.05;;;30.10;1.00;;;;;;5031045;28;20026;-61
2023/11/02 05:05:38;;;;;;;19.98;15.13;;;30.10;1.00;;;;;;5034587;28;20162;-61
2023/11/02 05:08:04;;;;;;;17.33;15.63;;;;;;;;;;5034423;28;20025;-61
2023/11/02 05:10:30;;;;;;;17.27;15.57;;;;;;;;;;5034456;28;20460;-61
2023/11/02 05:12:56;;;;;;;17.83;15.73;;;;;;;;;;5034408;28;20035;-60
2023/11/02 05:15:22;;;;;;;19.35;17.27;;;;;;;;;;5034319;28;20022;-61
2023/11/02 05:17:48;;;;;;;17.77;16.00;;;;;;;;;;5034312;28;20081;-61
2023/11/02 05:20:14;;;;;;;19.25;17.33;;;;;;;;;;5034191;28;20041;-61
2023/11/02 05:22:40;;;;;;;19.52;17.52;;;;;;;;;;5034221;28;20105;-61
2023/11/02 05:25:07;;;;;;;19.65;17.70;;;;;;;;;;5034069;28;20057;-61
2023/11/02 05:27:33;;;;;;;21.10;17.80;;;;;;;;;;5034147;28;20014;-61
2023/11/02 05:29:59;;;;;;;18.48;16.60;;;;;;;;;;5032526;28;20498;-61
2023/11/02 05:32:25;;;;;;;19.35;17.30;;;;;;;;;;5034119;28;20052;-61
2023/11/02 05:34:51;;;;;;;22.67;16.20;;;;;;;;;;5033855;28;20036;-61
2023/11/02 05:37:17;;;;;;;18.63;16.63;;;;;;;;;;5033976;28;20098;-61
2023/11/02 05:39:43;;;;;;;16.20;14.55;;;;;;;;;;5033378;28;20081;-61
2023/11/02 05:42:09;;;;;;;18.50;15.98;;;;;;;;;;5033431;28;20142;-61
2023/11/02 05:44:35;;;;;;;18.45;16.45;;;;;;;;;;5032433;28;20041;-61
2023/11/02 05:47:01;;;;;;;18.30;16.42;;;;;;;;;;5033557;28;20537;-61
2023/11/02 05:49:27;;;;;;;18.98;17.00;;;;;;;;;;5033893;28;20064;-61
2023/11/02 05:51:53;;;;;;;18.08;15.82;;;;;;;;;;5033524;28;20053;-61
2023/11/02 05:54:19;;;;;;;18.52;16.70;;;;;;;;;;5033552;28;20132;-61
2023/11/02 05:56:45;;;;;;;18.48;16.67;;;;;;;;;;5033600;28;20135;-61
2023/11/02 05:59:11;;;;;;;18.30;16.35;;;;;;;;;;5032312;28;20112;-61
2023/11/02 06:01:37;;;;;;;19.50;17.33;;;;;;;;;;5020500;28;20495;-61
2023/11/02 06:04:04;;;;;;;20.02;17.70;;;;;;;;;;5033439;28;20071;-61
2023/11/02 06:06:30;;;;;;;17.67;15.82;;;;;;;;;;5033321;28;20033;-61
2023/11/02 06:08:56;;;;;;;16.67;14.95;;;;;;;;;;5032275;28;20025;-61
2023/11/02 06:11:22;;;;;;;19.15;15.68;;;;;;;;;;5033396;28;20150;-61
2023/11/02 06:13:48;;;;;;;17.13;15.00;;;;;;;;;;5033607;28;20340;-61
2023/11/02 06:16:15;;;;;;;17.33;15.45;;;;;;;;;;5033265;28;20026;-61
2023/11/02 06:18:42;;;;;;;18.60;16.35;;;;;;;;;;5033252;28;20021;-61
2023/11/02 06:21:09;;;;;;;17.58;15.68;;;;;;;;;;5033205;28;20104;-61
2023/11/02 06:23:35;;;;;;;17.83;16.02;;;;;;;;;;5033095;28;20033;-61
2023/11/02 06:26:01;;;;;;;20.10;16.02;;;;;;;;;;5031662;28;20443;-61
2023/11/02 06:28:28;;;;;;;17.58;15.73;;;;;;;;;;5033230;28;20395;-61
2023/11/02 06:30:54;;;;;;;18.30;16.30;;;;;;;;;;5032923;28;20021;-61
2023/11/02 06:33:23;;;;;;;15.55;13.98;;;;;;;;;;5033121;28;20455;-61
2023/11/02 06:35:49;;;;;;;16.88;14.45;;;;;;;;;;5033065;28;20049;-61
2023/11/02 06:38:17;;;;;;;15.32;13.73;;;;;;;;;;5032614;28;20163;-61
2023/11/02 06:40:43;;;;;;;16.40;13.15;;;;;;;;;;5033004;28;20029;-61
2023/11/02 06:43:10;;;;;;;18.38;13.98;;;;;;;;;;5032773;28;20033;-61
2023/11/02 06:45:36;;;;;;;17.77;13.88;;;;;;;;;;5032693;28;20049;-61
2023/11/02 06:48:02;;;;;;;15.13;13.23;;;;;;;;;;5032819;28;20025;-61
2023/11/02 06:50:27;;;;;;;16.58;13.63;;;30.10;1.00;;;;;;5032503;28;20115;-61
2023/11/02 06:52:53;;;;;;;16.27;14.65;;;29.90;1.00;;;;;;5032599;28;20029;-61
2023/11/02 06:55:18;;;;;;;14.10;12.60;;;29.90;1.00;;;;;;5032498;28;20041;-61
2023/11/02 06:57:44;;;;;;;14.13;11.35;;;29.90;1.00;;;;;;5032707;28;20014;-61
2023/11/02 07:00:11;;;;;;;13.20;11.80;;;29.90;1.00;;;;;;5023545;28;20034;-61
2023/11/02 07:02:37;;;;;;;14.75;13.25;;;29.80;1.00;;;;;;5027655;28;20079;-61
2023/11/02 07:05:07;;;;;;;15.13;13.10;;;29.90;1.00;;;;;;5032301;28;20037;-61
2023/11/02 07:07:36;;;;;;;14.05;12.57;;;29.90;1.00;;;;;;5032497;28;20032;-61
2023/11/02 07:10:05;;;;;;;14.57;13.05;;;29.90;1.00;;;;;;5032182;28;20092;-61
2023/11/02 07:12:31;;;;;;;14.80;13.27;;;29.90;1.00;;;;;;5031097;28;20044;-61
2023/11/02 07:14:57;;;;;;;16.80;13.35;;;29.90;1.00;;;;;;5025731;28;20423;-61
2023/11/02 07:17:22;;;;;;;15.70;14.15;;;29.90;1.00;;;;;;5028587;28;20467;-62
2023/11/02 07:19:48;;;;;;;15.55;13.95;;;29.90;1.00;;;;;;5030056;28;20051;-61
2023/11/02 07:22:14;;;;;;;15.98;14.27;;;29.90;1.00;;;;;;5029786;28;20022;-61
2023/11/02 07:24:41;;;;;;;16.58;14.82;;;29.90;1.00;;;;;;5028939;28;20083;-61
2023/11/02 07:27:08;;;;;;;16.15;14.52;;;29.90;1.00;;;;;;5029959;28;20442;-61
2023/11/02 07:29:33;;;;;;;15.38;13.80;;;29.90;1.00;;;;;;5030455;28;20022;-61
2023/11/02 07:31:59;;;;;;;15.85;14.15;;;29.90;1.00;;;;;;5031739;28;20402;-61
2023/11/02 07:34:25;;;;;;;16.10;14.45;;;29.90;1.00;;;;;;5031826;28;20014;-61
2023/11/02 07:36:52;;;;;;;21.08;15.65;;;29.90;1.00;;;;;;5031710;28;20519;-61
2023/11/02 07:39:17;;;;;;;15.65;13.80;;;29.90;1.00;;;;;;5031944;28;20069;-61
2023/11/02 07:41:43;;;;;;;15.48;13.82;;;29.90;1.00;;;;;;5031926;28;20475;-61
2023/11/02 07:44:09;;;;;;;17.08;13.32;;;29.90;1.00;;;;;;5031843;28;20033;-61
2023/11/02 07:46:34;;;;;;;17.60;13.73;;;29.90;1.00;;;;;;5031860;28;20038;-61
2023/11/02 07:49:00;;;;;;;15.30;13.00;;;29.90;1.00;;;;;;5031575;28;20119;-61
2023/11/02 07:51:25;;;;;;;14.45;12.82;;;29.90;1.00;;;;;;5032068;28;20052;-61
2023/11/02 07:53:51;;;;;;;15.55;13.85;;;29.90;1.00;;;;;;5031502;28;20023;-61
2023/11/02 07:56:17;;;;;;;16.27;14.60;;;30.00;1.00;;;;;;5030640;28;20022;-61
2023/11/02 07:58:43;;;;;;;14.27;12.80;;;30.00;1.00;;;;;;5031662;28;20025;-60
2023/11/02 08:01:14;;;;;;;14.98;13.45;;;29.90;1.00;;;;;;5031878;28;20151;-61
2023/11/02 08:03:40;;;;;;;15.15;12.85;;;29.90;1.00;;;;;;5031624;28;20119;-61
2023/11/02 08:06:06;;;;;;;16.35;14.63;;;29.90;1.00;;;;;;5031477;28;20109;-61
2023/11/02 08:08:31;;;;;;;16.45;13.23;;;29.90;1.00;;;;;;5031501;28;20014;-61
2023/11/02 08:10:57;;;;;;;15.25;13.57;;;29.90;1.00;;;;;;5031800;28;20486;-60
2023/11/02 08:13:22;;;;;;;16.77;14.45;;;29.80;1.00;;;;;;5031618;28;20033;-61
2023/11/02 08:15:48;;;;;;;14.48;12.77;;;29.90;1.00;;;;;;5031685;28;20096;-60
2023/11/02 08:18:14;;;;;;;15.02;13.48;;;29.90;1.00;;;;;;5031914;28;20112;-60
2023/11/02 08:20:39;;;;;;;16.00;14.32;;;29.80;1.00;;;;;;5031466;28;20483;-61
2023/11/02 08:23:05;;;;;;;17.80;13.25;;;29.90;1.00;;;;;;5031315;28;20017;-61
2023/11/02 08:25:31;;;;;;;16.85;12.63;;;29.90;1.00;;;;;;5031387;28;20447;-60
2023/11/02 08:27:57;;;;;;;15.75;12.85;;;29.90;1.00;;;;;;5031480;28;20048;-60
2023/11/02 08:30:26;;;;;;;13.98;11.68;;;29.80;1.00;;;;;;5031152;28;20040;-60
2023/11/02 08:32:53;;;;;;;12.75;11.45;;;29.80;1.00;;;;;;5031228;28;20502;-60
2023/11/02 08:35:21;;;;;;;12.07;10.88;;;29.70;1.00;;;;;;5031116;28;20026;-58
2023/11/02 08:37:50;;;;;;;13.30;11.90;;;29.80;1.00;;;;;;5032201;28;20030;-58
2023/11/02 08:40:20;;;;;;;12.07;10.88;;;29.80;1.00;;;;;;5033189;28;20045;-57
2023/11/02 08:42:47;;;;;;;11.40;10.25;;;29.80;1.00;;;;;;5025788;28;20025;-58
2023/11/02 08:45:14;;;;;;;11.75;10.55;;;29.70;1.00;;;;;;5034542;28;20475;-58
2023/11/02 08:47:40;;;;;;;12.52;10.20;;;29.80;1.00;;;;;;5034507;28;20467;-58
2023/11/02 08:50:08;;;;;;;12.00;10.38;;;29.80;1.00;;;;;;5034427;28;20082;-58
2023/11/02 08:52:34;;;;;;;11.77;10.25;;;29.80;1.00;;;;;;5034774;28;20021;-59
2023/11/02 08:55:00;;;;;;;14.48;11.23;;;29.80;1.00;;;;;;5033791;28;20033;-58
2023/11/02 08:57:26;;;;;;;19.67;12.00;;;29.80;1.00;;;;;;5032548;28;20018;-64
2023/11/02 08:59:52;;;;;;;16.90;10.95;;;29.80;1.00;;;;;;5030010;28;20037;-74
2023/11/02 09:02:18;;;;;;;17.00;10.60;;;29.80;1.00;;;;;;5028658;28;20030;-67
2023/11/02 09:04:44;;;;;;;14.05;10.52;;;29.80;1.00;;;;;;5029173;28;20039;-69
2023/11/02 09:07:09;;;;;;;15.65;9.50;;;29.90;1.00;;;;;;5031432;28;20054;-73
2023/11/02 09:09:35;;;;;;;9.93;8.15;;;29.90;1.00;;;;;;5032297;28;20026;-65
2023/11/02 09:12:01;;;;;;;12.07;7.72;;;29.80;1.00;;;;;;5033120;28;20036;-63
2023/11/02 09:14:26;;;;;;;10.20;8.63;;;29.80;1.00;;;;;;5029148;28;20033;-62
2023/11/02 09:16:52;;;;;;;12.68;8.68;;;29.80;1.00;;;;;;5025568;28;20460;-59
2023/11/02 09:19:18;;;;;;;8.95;8.05;;;29.90;1.00;;;;;;5016283;28;20038;-64
2023/11/02 09:21:43;;;;;;;9.57;7.32;;;29.90;1.00;;;;;;5024678;28;20029;-62
2023/11/02 09:24:09;;;;;;;8.85;7.45;;;29.80;1.00;;;;;;5031234;28;20029;-63
2023/11/02 09:26:39;;;;;;;8.85;6.97;;;29.80;1.00;;;;;;5019443;28;20026;-65
2023/11/02 09:29:05;;;;;;;8.10;6.85;;;29.90;1.00;;;;;;5022471;28;20032;-68
2023/11/02 09:31:31;;;;;;;7.50;6.78;;;29.80;1.00;;;;;;5022797;28;20033;-65
2023/11/02 09:33:58;;;;;;;8.38;7.07;;;30.00;1.00;;;;;;5027348;28;20034;-64
2023/11/02 09:36:23;;;;;;;11.30;5.90;;;29.90;1.00;;;;;;5053229;28;20029;-65
2023/11/02 09:38:49;;;;;;;7.43;5.85;;;29.90;1.00;;;;;;5021053;28;20046;-61
2023/11/02 09:41:15;;;;;;;5.20;4.70;;;29.80;1.00;;;;;;5029565;28;20025;-67
2023/11/02 09:43:41;;;;;;;7.03;5.22;;;29.90;1.00;;;;;;5032120;28;20018;-70
2023/11/02 09:46:07;;;;;;;7.65;5.07;;;29.90;1.00;;;;;;5031770;28;20026;-72
2023/11/02 09:48:33;;;;;;;4.95;4.55;;;29.90;1.00;;;;;;5032780;28;20075;-75
2023/11/02 09:50:59;;;;;;;6.93;4.35;;;29.80;1.00;;;;;;5031546;28;20029;-63
2023/11/02 09:53:26;;;;;;;5.65;4.80;;;29.90;1.00;;;;;;5024588;28;20030;-75
2023/11/02 09:55:52;;;;;;;8.50;4.90;;;29.80;1.00;;;;;;5023615;28;20041;-63
2023/11/02 09:58:19;;;;;;;5.25;3.90;;;29.90;1.00;;;;;;5022913;28;20092;-63
2023/11/02 10:00:48;;;;;;;6.03;4.53;;;29.90;1.00;;;;;;5016155;28;20061;-69
2023/11/02 10:03:15;;;;;;;6.78;3.55;;;29.90;1.00;;;;;;5020697;28;20572;-64
2023/11/02 10:05:41;;;;;;;5.55;2.95;;;29.90;1.00;;;;;;5021378;28;20038;-61
2023/11/02 10:08:06;;;;;;;3.63;3.30;;;29.90;99.90;;;;;;5023633;28;20140;-60
2023/11/02 10:10:33;;;;;;;4.38;3.97;;;29.80;99.90;;;;;;5020770;28;20037;-62
2023/11/02 10:13:00;;;;;;;5.35;3.25;;;29.90;99.90;;;;;;5024536;28;20028;-64
2023/11/02 10:15:25;;;;;;;5.50;2.60;;;29.90;99.90;;;;;;5025571;28;20033;-63
2023/11/02 10:17:51;;;;;;;3.58;3.28;;;29.90;99.90;;;;;;5020419;28;20394;-63
2023/11/02 10:20:17;;;;;;;4.35;3.47;;;29.90;99.90;;;;;;5023313;28;20125;-60
2023/11/02 10:22:45;;;;;;;4.85;4.10;;;29.80;5.30;;;;;;5026154;28;20440;-64
2023/11/02 10:25:14;;;;;;;3.75;3.30;;;29.90;1.00;;;;;;5021077;28;20065;-67
2023/11/02 10:27:43;;;;;;;6.28;3.80;;;29.90;1.00;;;;;;5021195;28;20040;-68
2023/11/02 10:30:11;;;;;;;5.25;4.75;;;30.00;1.00;;;;;;5022400;28;20029;-65
2023/11/02 10:32:37;;;;;;;5.40;4.10;;;30.00;1.00;;;;;;5021975;28;20033;-59
2023/11/02 10:35:04;;;;;;;4.90;3.83;;;29.90;1.00;;;;;;5019061;28;20025;-66
2023/11/02 10:37:36;;;;;;;8.10;4.65;;;29.90;1.00;;;;;;5024375;28;20178;-68
2023/11/02 10:40:02;;;;;;;6.55;4.32;;;29.90;1.00;;;;;;5022813;28;20074;-53
2023/11/02 10:42:28;;;;;;;6.15;4.35;;;30.00;1.00;;;;;;5025110;28;20079;-65
2023/11/02 10:44:56;;;;;;;7.93;5.10;;;30.00;1.00;;;;;;5028193;28;20021;-64
2023/11/02 10:47:29;;;;;;;8.02;4.85;;;30.00;1.00;;;;;;5032433;28;20120;-68
2023/11/02 10:49:57;;;;;;;7.07;4.75;;;29.90;1.00;;;;;;5032797;28;20025;-66
2023/11/02 10:52:54;;;;;;;5.50;5.00;;;29.90;1.00;;;;;;5026907;28;20026;-67
2023/11/02 10:55:28;;;;;;;7.35;4.63;;;29.90;1.00;;;;;;5022600;28;20053;-72
2023/11/02 10:57:54;;;;;;;8.77;4.68;;;29.90;1.00;;;;;;5026923;28;20087;-63
2023/11/02 11:00:25;;;;;;;7.80;4.22;;;29.80;1.00;;;;;;5025850;28;20027;-66
2023/11/02 11:02:51;;;;;;;4.95;4.20;;;29.80;1.00;;;;;;5031313;28;20044;-64
2023/11/02 11:05:18;;;;;;;4.70;4.30;;;29.80;1.00;;;;;;5027596;28;20026;-64
2023/11/02 11:07:45;;;;;;;7.35;5.10;;;29.80;1.00;;;;;;5031646;28;20036;-61
2023/11/02 11:10:12;;;;;;;5.75;5.15;;;29.90;1.00;;;;;;5055036;28;20029;-64
2023/11/02 11:12:40;;;;;;;4.43;4.03;;;29.80;1.00;;;;;;5027759;28;20033;-68
2023/11/02 11:15:11;;;;;;;5.05;4.40;;;29.70;1.00;;;;;;5031329;28;20021;-62
2023/11/02 11:17:43;;;;;;;4.78;4.45;;;29.60;1.00;;;;;;5027807;28;20395;-65
2023/11/02 11:20:10;;;;;;;4.82;4.43;;;29.60;1.00;;;;;;5028482;28;20057;-62
2023/11/02 11:22:39;;;;;;;3.90;3.60;;;29.60;1.00;;;;;;5029285;28;20117;-60
2023/11/02 11:25:06;;;;;;;4.50;4.20;;;29.60;1.00;;;;;;5021877;28;20080;-59
2023/11/02 11:27:36;;;;;;;4.40;4.10;;;29.60;1.00;;;;;;5028874;28;20032;-59
2023/11/02 11:30:04;;;;;;;4.30;3.97;;;29.60;1.00;;;;;;5020401;28;20053;-60
2023/11/02 11:32:35;;;;;;;4.45;4.05;;;29.50;1.00;;;;;;5028202;28;20071;-59
2023/11/02 11:35:06;;;;;;;4.55;4.15;;;29.50;1.00;;;;;;5025178;28;20057;-58
2023/11/02 11:38:00;;;;;;;5.18;4.38;;;29.50;1.00;;;;;;5031814;28;20096;-58
2023/11/02 11:40:32;;;;;;;6.43;4.97;;;29.50;1.00;;;;;;5023111;28;20124;-59
2023/11/02 11:43:06;;;;;;;6.65;5.18;;;29.60;1.00;;;;;;5022657;28;20048;-61
2023/11/02 11:45:48;;;;;;;4.65;4.25;;;29.70;1.00;;;;;;5031098;28;20533;-61
2023/11/02 11:48:40;;;;;;;4.93;4.53;;;29.60;1.00;;;;;;5030554;28;20028;-61
2023/11/02 11:51:31;;;;;;;5.10;4.65;;;29.70;1.00;;;;;;5059410;28;20060;-61
2023/11/02 12:00:53;;;;;;;5.28;4.53;;;29.70;1.00;;;;;;5027172;28;20505;-61
2023/11/02 12:03:36;;;;;;;5.25;4.85;;;29.70;1.00;;;;;;5031261;28;20524;-61
2023/11/02 12:06:06;;;;;;;7.53;5.07;;;29.80;1.00;;;;;;5029802;28;20033;-58
2023/11/02 12:08:48;;;;;;;7.10;4.45;;;29.70;1.00;;;;;;5021234;28;20018;-59
2023/11/02 12:11:21;;;;;;;5.75;5.25;;;29.70;1.00;;;;;;5030119;28;20120;-58
2023/11/02 12:13:58;;;;;;;6.68;5.20;;;29.70;99.90;;;;;;5035625;28;20029;-59
2023/11/02 12:16:31;;;;;;;7.85;6.63;;;29.60;99.90;;;;;;5035716;28;20542;-59
2023/11/02 12:18:57;;;;;;;7.30;6.00;;;29.60;99.90;;;;;;5035486;28;20026;-59
2023/11/02 12:21:24;;;;;;;5.40;4.70;;;;;;;;;;5035503;28;20026;-59
2023/11/02 12:23:50;;;;;;;10.20;4.95;;;29.50;99.90;;;;;;5035363;28;20028;-59
2023/11/02 12:26:19;;;;;;;9.77;5.78;;;29.50;99.90;;;;;;5034061;28;20041;-58
2023/11/02 12:28:50;;;;;;;6.97;5.60;;;29.60;99.90;;;;;;5033437;28;20079;-59
2023/11/02 12:31:32;;;;;;;5.50;4.80;;;;;;;;;;5033113;28;20058;-59
2023/11/02 12:33:59;;;;;;;5.63;4.97;;;;;;;;;;5030686;28;20383;-59
2023/11/02 12:36:25;;;;;;;4.65;4.20;;;;;;;;;;5035122;28;20048;-59
2023/11/02 12:38:51;;;;;;;7.35;4.25;;;29.50;99.90;;;;;;5034835;28;20056;-59
2023/11/02 12:41:33;;;;;;;7.20;5.10;;;29.50;99.90;;;;;;5029375;28;20091;-60
2023/11/02 12:44:05;;;;;;;5.70;5.05;;;29.50;99.90;;;;;;5034236;28;20022;-59
2023/11/02 12:46:42;;;;;;;6.47;5.68;;;29.50;99.90;;;;;;5024924;28;20047;-59
2023/11/02 12:49:15;;;;;;;6.05;5.00;;;29.50;99.90;;;;;;5022074;28;20370;-59
2023/11/02 12:51:42;;;;;;;7.20;5.38;;;29.50;99.90;;;;;;5028332;28;20049;-59
2023/11/02 12:54:13;;;;;;;5.68;5.07;;;29.60;99.90;;;;;;5034602;28;20024;-60
2023/11/02 12:56:39;;;;;;;5.00;4.50;;;29.50;99.90;;;;;;5034979;28;20026;-60
2023/11/02 12:59:07;;;;;;;5.63;5.00;;;29.60;99.90;;;;;;5034389;28;20017;-60
2023/11/02 13:01:55;;;;;;;8.80;6.45;;;29.60;99.90;;;;;;5034730;28;20087;-60
2023/11/02 13:04:24;;;;;;;14.77;6.55;;;29.60;99.90;;;;;;5033264;28;20329;-60
2023/11/02 13:06:51;;;;;;;7.07;5.28;;;29.60;99.90;;;;;;5034754;28;20103;-60
2023/11/02 13:09:18;;;;;;;6.97;5.13;;;29.60;99.90;;;;;;5034362;28;20568;-60
2023/11/02 13:11:50;;;;;;;8.30;5.50;;;29.50;99.90;;;;;;5033263;28;20121;-60
2023/11/02 13:14:18;;;;;;;5.93;5.28;;;29.60;99.90;;;;;;5034367;28;20095;-60
2023/11/02 13:16:51;;;;;;;7.97;5.90;;;29.70;99.90;;;;;;5034410;28;20479;-60
2023/11/02 13:19:20;;;;;;;14.88;6.95;;;29.70;99.90;;;;;;5034378;28;20025;-60
2023/11/02 13:21:52;;;;;;;8.25;6.38;;;29.70;99.90;;;;;;5034528;28;20384;-60
2023/11/02 13:24:18;;;;;;;8.30;5.65;;;29.60;99.90;;;;;;5033498;28;20026;-60
2023/11/02 13:26:44;;;;;;;8.10;6.30;;;29.60;99.90;;;;;;5028513;28;20207;-60
2023/11/02 13:29:10;;;;;;;9.48;6.63;;;29.60;99.90;;;;;;5032673;28;20502;-60
2023/11/02 13:31:39;;;;;;;11.40;6.53;;;29.60;99.90;;;;;;5032058;28;20060;-60